sensor_id;sensor_type;location;lat;lon;timestamp;pressure;altitude;pressure_sealevel;temperature
67829;BMP280;54626;45.436;10.942;2023-05-29T00:02:21;100468.91;;;19.87
67829;BMP280;54626;45.436;10.942;2023-05-29T00:05:27;100460.50;;;19.87
67829;BMP280;54626;45.436;10.942;2023-05-29T00:07:53;100462.56;;;19.86
67829;BMP280;54626;45.436;10.942;2023-05-29T00:10:22;100467.59;;;19.88
67829;BMP280;54626;45.436;10.942;2023-05-29T00:12:51;100462.72;;;19.88
67829;BMP280;54626;45.436;10.942;2023-05-29T00:15:18;100460.50;;;19.87
67829;BMP280;54626;45.436;10.942;2023-05-29T00:17:45;100464.66;;;19.86
67829;BMP280;54626;45.436;10.942;2023-05-29T00:20:16;100468.44;;;19.90
67829;BMP280;54626;45.436;10.942;2023-05-29T00:22:45;100469.81;;;19.89
67829;BMP280;54626;45.436;10.942;2023-05-29T00:25:12;100472.69;;;19.80
67829;BMP280;54626;45.436;10.942;2023-05-29T00:27:38;100469.88;;;19.80
67829;BMP280;54626;45.436;10.942;2023-05-29T00:30:05;100473.03;;;19.74
67829;BMP280;54626;45.436;10.942;2023-05-29T00:32:32;100475.59;;;19.70
67829;BMP280;54626;45.436;10.942;2023-05-29T00:41:25;100470.19;;;19.51
67829;BMP280;54626;45.436;10.942;2023-05-29T00:43:52;100477.13;;;19.50
67829;BMP280;54626;45.436;10.942;2023-05-29T00:46:19;100476.25;;;19.48
67829;BMP280;54626;45.436;10.942;2023-05-29T00:48:47;100472.34;;;19.53
67829;BMP280;54626;45.436;10.942;2023-05-29T00:51:14;100471.91;;;19.56
67829;BMP280;54626;45.436;10.942;2023-05-29T00:53:42;100471.94;;;19.68
67829;BMP280;54626;45.436;10.942;2023-05-29T00:59:12;100468.28;;;19.77
67829;BMP280;54626;45.436;10.942;2023-05-29T01:01:55;100476.63;;;19.86
67829;BMP280;54626;45.436;10.942;2023-05-29T01:04:23;100477.84;;;19.95
67829;BMP280;54626;45.436;10.942;2023-05-29T01:06:50;100477.41;;;19.98
67829;BMP280;54626;45.436;10.942;2023-05-29T01:15:58;100481.50;;;19.86
67829;BMP280;54626;45.436;10.942;2023-05-29T01:27:52;100483.00;;;19.98
67829;BMP280;54626;45.436;10.942;2023-05-29T01:34:00;100474.19;;;19.92
67829;BMP280;54626;45.436;10.942;2023-05-29T01:36:27;100480.53;;;19.93
67829;BMP280;54626;45.436;10.942;2023-05-29T01:38:56;100471.97;;;19.91
67829;BMP280;54626;45.436;10.942;2023-05-29T01:41:24;100472.13;;;19.93
67829;BMP280;54626;45.436;10.942;2023-05-29T01:47:16;100467.31;;;19.72
67829;BMP280;54626;45.436;10.942;2023-05-29T01:49:43;100480.19;;;19.66
67829;BMP280;54626;45.436;10.942;2023-05-29T01:54:45;100464.56;;;19.51
67829;BMP280;54626;45.436;10.942;2023-05-29T01:57:12;100471.66;;;19.52
67829;BMP280;54626;45.436;10.942;2023-05-29T02:03:00;100473.19;;;19.23
67829;BMP280;54626;45.436;10.942;2023-05-29T02:05:27;100487.56;;;19.18
67829;BMP280;54626;45.436;10.942;2023-05-29T02:07:53;100487.56;;;19.18
67829;BMP280;54626;45.436;10.942;2023-05-29T02:10:20;100492.28;;;19.15
67829;BMP280;54626;45.436;10.942;2023-05-29T02:12:47;100494.03;;;19.20
67829;BMP280;54626;45.436;10.942;2023-05-29T02:15:31;100489.56;;;19.27
67829;BMP280;54626;45.436;10.942;2023-05-29T02:20:45;100480.88;;;19.43
67829;BMP280;54626;45.436;10.942;2023-05-29T02:23:12;100483.56;;;19.53
67829;BMP280;54626;45.436;10.942;2023-05-29T02:25:39;100476.16;;;19.57
67829;BMP280;54626;45.436;10.942;2023-05-29T02:28:06;100481.16;;;19.59
67829;BMP280;54626;45.436;10.942;2023-05-29T02:30:33;100473.34;;;19.57
67829;BMP280;54626;45.436;10.942;2023-05-29T02:33:00;100479.38;;;19.63
67829;BMP280;54626;45.436;10.942;2023-05-29T02:35:42;100486.06;;;19.70
67829;BMP280;54626;45.436;10.942;2023-05-29T02:38:08;100491.25;;;19.73
67829;BMP280;54626;45.436;10.942;2023-05-29T02:40:35;100495.00;;;19.66
67829;BMP280;54626;45.436;10.942;2023-05-29T02:43:01;100499.72;;;19.64
67829;BMP280;54626;45.436;10.942;2023-05-29T02:45:28;100505.72;;;19.70
67829;BMP280;54626;45.436;10.942;2023-05-29T02:47:54;100506.88;;;19.76
67829;BMP280;54626;45.436;10.942;2023-05-29T02:50:21;100491.25;;;19.85
67829;BMP280;54626;45.436;10.942;2023-05-29T02:52:48;100497.50;;;19.95
67829;BMP280;54626;45.436;10.942;2023-05-29T02:55:15;100495.34;;;20.04
67829;BMP280;54626;45.436;10.942;2023-05-29T02:57:54;100498.53;;;20.10
67829;BMP280;54626;45.436;10.942;2023-05-29T03:00:28;100502.47;;;20.17
67829;BMP280;54626;45.436;10.942;2023-05-29T03:06:57;100501.13;;;20.18
67829;BMP280;54626;45.436;10.942;2023-05-29T03:12:16;100506.94;;;19.67
67829;BMP280;54626;45.436;10.942;2023-05-29T03:14:45;100531.69;;;19.38
67829;BMP280;54626;45.436;10.942;2023-05-29T03:17:11;100532.03;;;19.12
67829;BMP280;54626;45.436;10.942;2023-05-29T03:22:41;100518.28;;;18.85
67829;BMP280;54626;45.436;10.942;2023-05-29T03:27:33;100528.03;;;18.84
67829;BMP280;54626;45.436;10.942;2023-05-29T03:29:59;100520.81;;;18.81
67829;BMP280;54626;45.436;10.942;2023-05-29T03:32:41;100523.91;;;18.85
67829;BMP280;54626;45.436;10.942;2023-05-29T03:35:08;100523.59;;;18.91
67829;BMP280;54626;45.436;10.942;2023-05-29T03:37:34;100524.78;;;18.88
67829;BMP280;54626;45.436;10.942;2023-05-29T03:40:01;100518.84;;;18.93
67829;BMP280;54626;45.436;10.942;2023-05-29T03:42:27;100524.44;;;18.93
67829;BMP280;54626;45.436;10.942;2023-05-29T03:45:33;100527.91;;;18.82
67829;BMP280;54626;45.436;10.942;2023-05-29T03:48:00;100523.78;;;18.83
67829;BMP280;54626;45.436;10.942;2023-05-29T03:50:27;100520.03;;;18.90
67829;BMP280;54626;45.436;10.942;2023-05-29T03:52:53;100517.50;;;18.94
67829;BMP280;54626;45.436;10.942;2023-05-29T03:55:20;100515.75;;;18.89
67829;BMP280;54626;45.436;10.942;2023-05-29T03:57:52;100522.47;;;19.05
67829;BMP280;54626;45.436;10.942;2023-05-29T04:00:28;100517.75;;;19.08
67829;BMP280;54626;45.436;10.942;2023-05-29T04:02:55;100518.69;;;19.22
67829;BMP280;54626;45.436;10.942;2023-05-29T04:05:22;100523.81;;;19.04
67829;BMP280;54626;45.436;10.942;2023-05-29T04:07:49;100518.47;;;19.08
67829;BMP280;54626;45.436;10.942;2023-05-29T04:12:57;100521.06;;;19.16
67829;BMP280;54626;45.436;10.942;2023-05-29T04:15:24;100527.41;;;19.16
67829;BMP280;54626;45.436;10.942;2023-05-29T04:17:50;100522.34;;;19.24
67829;BMP280;54626;45.436;10.942;2023-05-29T04:20:17;100522.75;;;19.30
67829;BMP280;54626;45.436;10.942;2023-05-29T04:22:44;100534.09;;;19.32
67829;BMP280;54626;45.436;10.942;2023-05-29T04:25:10;100531.69;;;19.38
67829;BMP280;54626;45.436;10.942;2023-05-29T04:27:37;100535.72;;;19.35
67829;BMP280;54626;45.436;10.942;2023-05-29T04:30:12;100537.31;;;19.38
67829;BMP280;54626;45.436;10.942;2023-05-29T04:33:03;100541.50;;;19.48
67829;BMP280;54626;45.436;10.942;2023-05-29T04:35:29;100542.38;;;19.51
67829;BMP280;54626;45.436;10.942;2023-05-29T04:38:05;100543.59;;;19.48
67829;BMP280;54626;45.436;10.942;2023-05-29T04:40:31;100544.47;;;19.50
67829;BMP280;54626;45.436;10.942;2023-05-29T04:42:59;100547.72;;;19.47
67829;BMP280;54626;45.436;10.942;2023-05-29T04:45:28;100553.88;;;19.55
67829;BMP280;54626;45.436;10.942;2023-05-29T04:47:55;100553.91;;;19.66
67829;BMP280;54626;45.436;10.942;2023-05-29T04:50:23;100554.06;;;19.68
67829;BMP280;54626;45.436;10.942;2023-05-29T05:01:29;100543.38;;;19.88
67829;BMP280;54626;45.436;10.942;2023-05-29T05:04:00;100551.03;;;20.08
67829;BMP280;54626;45.436;10.942;2023-05-29T05:14:20;100550.03;;;20.58
67829;BMP280;54626;45.436;10.942;2023-05-29T05:16:47;100540.75;;;20.67
67829;BMP280;54626;45.436;10.942;2023-05-29T05:19:14;100541.72;;;20.83
67829;BMP280;54626;45.436;10.942;2023-05-29T05:21:47;100542.81;;;20.90
67829;BMP280;54626;45.436;10.942;2023-05-29T05:24:26;100545.50;;;20.88
67829;BMP280;54626;45.436;10.942;2023-05-29T05:27:02;100539.88;;;20.88
67829;BMP280;54626;45.436;10.942;2023-05-29T05:29:42;100543.78;;;21.06
67829;BMP280;54626;45.436;10.942;2023-05-29T05:32:08;100532.16;;;21.11
67829;BMP280;54626;45.436;10.942;2023-05-29T05:34:35;100534.31;;;21.24
67829;BMP280;54626;45.436;10.942;2023-05-29T05:37:02;100522.31;;;21.23
67829;BMP280;54626;45.436;10.942;2023-05-29T05:39:29;100528.41;;;21.31
67829;BMP280;54626;45.436;10.942;2023-05-29T05:42:05;100528.03;;;21.37
67829;BMP280;54626;45.436;10.942;2023-05-29T05:44:32;100531.41;;;21.47
67829;BMP280;54626;45.436;10.942;2023-05-29T05:46:59;100522.31;;;21.60
67829;BMP280;54626;45.436;10.942;2023-05-29T05:49:25;100522.41;;;21.62
67829;BMP280;54626;45.436;10.942;2023-05-29T05:51:52;100522.28;;;21.71
67829;BMP280;54626;45.436;10.942;2023-05-29T05:54:19;100516.25;;;21.76
67829;BMP280;54626;45.436;10.942;2023-05-29T05:56:46;100515.84;;;21.82
67829;BMP280;54626;45.436;10.942;2023-05-29T05:59:12;100518.25;;;21.87
67829;BMP280;54626;45.436;10.942;2023-05-29T06:01:39;100515.44;;;21.87
67829;BMP280;54626;45.436;10.942;2023-05-29T06:07:24;100514.56;;;21.71
67829;BMP280;54626;45.436;10.942;2023-05-29T06:09:50;100517.75;;;21.66
67829;BMP280;54626;45.436;10.942;2023-05-29T06:12:17;100520.06;;;21.69
67829;BMP280;54626;45.436;10.942;2023-05-29T06:14:43;100518.38;;;21.65
67829;BMP280;54626;45.436;10.942;2023-05-29T06:17:10;100514.38;;;21.56
67829;BMP280;54626;45.436;10.942;2023-05-29T06:19:37;100515.13;;;21.57
67829;BMP280;54626;45.436;10.942;2023-05-29T06:22:41;100528.97;;;21.53
67829;BMP280;54626;45.436;10.942;2023-05-29T06:25:08;100521.38;;;21.55
67829;BMP280;54626;45.436;10.942;2023-05-29T06:27:36;100519.38;;;21.58
67829;BMP280;54626;45.436;10.942;2023-05-29T06:30:02;100525.00;;;21.58
67829;BMP280;54626;45.436;10.942;2023-05-29T06:32:29;100517.81;;;21.55
67829;BMP280;54626;45.436;10.942;2023-05-29T06:35:21;100516.84;;;21.50
67829;BMP280;54626;45.436;10.942;2023-05-29T06:37:48;100520.50;;;21.53
67829;BMP280;54626;45.436;10.942;2023-05-29T06:41:13;100527.69;;;21.67
67829;BMP280;54626;45.436;10.942;2023-05-29T06:43:40;100533.28;;;21.92
67829;BMP280;54626;45.436;10.942;2023-05-29T06:46:10;100522.91;;;22.08
67829;BMP280;54626;45.436;10.942;2023-05-29T06:48:36;100532.56;;;22.29
67829;BMP280;54626;45.436;10.942;2023-05-29T06:51:06;100529.91;;;22.58
67829;BMP280;54626;45.436;10.942;2023-05-29T06:53:41;100537.84;;;22.75
67829;BMP280;54626;45.436;10.942;2023-05-29T06:56:07;100540.78;;;22.90
67829;BMP280;54626;45.436;10.942;2023-05-29T06:58:37;100541.28;;;22.87
67829;BMP280;54626;45.436;10.942;2023-05-29T07:01:03;100542.00;;;23.01
67829;BMP280;54626;45.436;10.942;2023-05-29T07:03:43;100543.00;;;23.21
67829;BMP280;54626;45.436;10.942;2023-05-29T07:06:23;100539.06;;;23.12
67829;BMP280;54626;45.436;10.942;2023-05-29T07:08:50;100542.38;;;23.22
67829;BMP280;54626;45.436;10.942;2023-05-29T07:11:16;100538.44;;;23.42
67829;BMP280;54626;45.436;10.942;2023-05-29T07:13:53;100533.22;;;23.66
67829;BMP280;54626;45.436;10.942;2023-05-29T07:16:39;100531.91;;;23.82
67829;BMP280;54626;45.436;10.942;2023-05-29T07:19:12;100535.94;;;24.08
67829;BMP280;54626;45.436;10.942;2023-05-29T07:22:14;100537.59;;;23.97
67829;BMP280;54626;45.436;10.942;2023-05-29T07:24:41;100538.31;;;23.98
67829;BMP280;54626;45.436;10.942;2023-05-29T07:27:30;100534.94;;;24.01
67829;BMP280;54626;45.436;10.942;2023-05-29T07:30:03;100536.13;;;24.12
67829;BMP280;54626;45.436;10.942;2023-05-29T07:32:31;100548.81;;;24.26
67829;BMP280;54626;45.436;10.942;2023-05-29T07:34:58;100544.00;;;24.44
67829;BMP280;54626;45.436;10.942;2023-05-29T07:37:24;100548.56;;;24.51
67829;BMP280;54626;45.436;10.942;2023-05-29T07:39:51;100534.97;;;24.80
67829;BMP280;54626;45.436;10.942;2023-05-29T07:42:32;100543.84;;;25.05
67829;BMP280;54626;45.436;10.942;2023-05-29T07:44:59;100537.84;;;24.97
67829;BMP280;54626;45.436;10.942;2023-05-29T07:47:25;100532.34;;;24.69
67829;BMP280;54626;45.436;10.942;2023-05-29T07:49:54;100545.84;;;24.70
67829;BMP280;54626;45.436;10.942;2023-05-29T07:52:23;100536.13;;;24.90
67829;BMP280;54626;45.436;10.942;2023-05-29T07:54:50;100542.88;;;25.16
67829;BMP280;54626;45.436;10.942;2023-05-29T07:57:17;100547.97;;;25.20
67829;BMP280;54626;45.436;10.942;2023-05-29T07:59:44;100546.16;;;25.43
67829;BMP280;54626;45.436;10.942;2023-05-29T08:02:13;100537.41;;;25.20
67829;BMP280;54626;45.436;10.942;2023-05-29T08:04:40;100554.28;;;25.36
67829;BMP280;54626;45.436;10.942;2023-05-29T08:07:10;100549.13;;;25.30
67829;BMP280;54626;45.436;10.942;2023-05-29T08:09:36;100545.31;;;25.24
67829;BMP280;54626;45.436;10.942;2023-05-29T08:12:03;100551.25;;;25.47
67829;BMP280;54626;45.436;10.942;2023-05-29T08:14:30;100545.66;;;25.49
67829;BMP280;54626;45.436;10.942;2023-05-29T08:16:57;100544.19;;;25.48
67829;BMP280;54626;45.436;10.942;2023-05-29T08:19:23;100549.78;;;25.63
67829;BMP280;54626;45.436;10.942;2023-05-29T08:21:50;100547.44;;;25.58
67829;BMP280;54626;45.436;10.942;2023-05-29T08:24:17;100550.25;;;25.58
67829;BMP280;54626;45.436;10.942;2023-05-29T08:26:47;100550.09;;;25.71
67829;BMP280;54626;45.436;10.942;2023-05-29T08:29:14;100550.94;;;25.56
67829;BMP280;54626;45.436;10.942;2023-05-29T08:31:40;100554.81;;;25.47
67829;BMP280;54626;45.436;10.942;2023-05-29T08:34:13;100559.81;;;25.49
67829;BMP280;54626;45.436;10.942;2023-05-29T08:36:40;100551.53;;;25.37
67829;BMP280;54626;45.436;10.942;2023-05-29T08:39:07;100556.50;;;25.37
67829;BMP280;54626;45.436;10.942;2023-05-29T08:41:57;100564.09;;;25.33
67829;BMP280;54626;45.436;10.942;2023-05-29T08:44:29;100569.06;;;25.49
67829;BMP280;54626;45.436;10.942;2023-05-29T08:47:01;100562.97;;;25.57
67829;BMP280;54626;45.436;10.942;2023-05-29T08:49:29;100559.56;;;25.60
67829;BMP280;54626;45.436;10.942;2023-05-29T08:52:04;100556.50;;;25.54
67829;BMP280;54626;45.436;10.942;2023-05-29T08:54:34;100560.22;;;25.59
67829;BMP280;54626;45.436;10.942;2023-05-29T08:57:01;100573.25;;;25.66
67829;BMP280;54626;45.436;10.942;2023-05-29T08:59:30;100565.06;;;25.74
67829;BMP280;54626;45.436;10.942;2023-05-29T09:02:00;100557.25;;;25.72
67829;BMP280;54626;45.436;10.942;2023-05-29T09:04:28;100558.38;;;25.65
67829;BMP280;54626;45.436;10.942;2023-05-29T09:06:57;100561.59;;;25.58
67829;BMP280;54626;45.436;10.942;2023-05-29T09:09:29;100561.84;;;25.81
67829;BMP280;54626;45.436;10.942;2023-05-29T09:11:56;100561.31;;;26.04
67829;BMP280;54626;45.436;10.942;2023-05-29T09:14:36;100563.22;;;26.17
67829;BMP280;54626;45.436;10.942;2023-05-29T09:17:04;100566.50;;;26.48
67829;BMP280;54626;45.436;10.942;2023-05-29T09:19:33;100561.88;;;26.78
67829;BMP280;54626;45.436;10.942;2023-05-29T09:24:28;100564.06;;;26.79
67829;BMP280;54626;45.436;10.942;2023-05-29T09:26:55;100554.66;;;26.94
67829;BMP280;54626;45.436;10.942;2023-05-29T09:29:23;100561.78;;;27.16
67829;BMP280;54626;45.436;10.942;2023-05-29T09:31:50;100569.91;;;27.26
67829;BMP280;54626;45.436;10.942;2023-05-29T09:34:17;100566.41;;;27.06
67829;BMP280;54626;45.436;10.942;2023-05-29T09:36:43;100575.13;;;27.12
67829;BMP280;54626;45.436;10.942;2023-05-29T09:39:09;100574.88;;;27.04
67829;BMP280;54626;45.436;10.942;2023-05-29T09:41:44;100564.94;;;27.05
67829;BMP280;54626;45.436;10.942;2023-05-29T09:44:13;100571.31;;;27.25
67829;BMP280;54626;45.436;10.942;2023-05-29T09:46:41;100571.94;;;27.44
67829;BMP280;54626;45.436;10.942;2023-05-29T09:49:12;100569.09;;;27.44
67829;BMP280;54626;45.436;10.942;2023-05-29T09:51:40;100569.28;;;27.50
67829;BMP280;54626;45.436;10.942;2023-05-29T09:57:54;100564.53;;;27.80
67829;BMP280;54626;45.436;10.942;2023-05-29T10:00:21;100565.06;;;27.51
67829;BMP280;54626;45.436;10.942;2023-05-29T10:02:50;100573.03;;;28.01
67829;BMP280;54626;45.436;10.942;2023-05-29T10:05:17;100569.44;;;27.54
67829;BMP280;54626;45.436;10.942;2023-05-29T10:07:46;100567.34;;;27.57
67829;BMP280;54626;45.436;10.942;2023-05-29T10:10:14;100566.19;;;27.87
67829;BMP280;54626;45.436;10.942;2023-05-29T10:13:01;100571.59;;;28.26
67829;BMP280;54626;45.436;10.942;2023-05-29T10:15:43;100576.53;;;28.50
67829;BMP280;54626;45.436;10.942;2023-05-29T10:18:38;100563.72;;;28.49
67829;BMP280;54626;45.436;10.942;2023-05-29T10:21:07;100569.25;;;28.43
67829;BMP280;54626;45.436;10.942;2023-05-29T10:23:36;100562.47;;;28.56
67829;BMP280;54626;45.436;10.942;2023-05-29T10:26:18;100568.38;;;28.37
67829;BMP280;54626;45.436;10.942;2023-05-29T10:28:55;100561.13;;;28.59
67829;BMP280;54626;45.436;10.942;2023-05-29T10:40:11;100547.25;;;28.73
67829;BMP280;54626;45.436;10.942;2023-05-29T10:50:52;100541.53;;;28.98
67829;BMP280;54626;45.436;10.942;2023-05-29T10:53:31;100549.13;;;28.63
67829;BMP280;54626;45.436;10.942;2023-05-29T10:56:01;100541.97;;;28.89
67829;BMP280;54626;45.436;10.942;2023-05-29T10:58:30;100547.44;;;29.37
67829;BMP280;54626;45.436;10.942;2023-05-29T11:00:56;100536.72;;;30.02
67829;BMP280;54626;45.436;10.942;2023-05-29T11:03:32;100533.22;;;29.70
67829;BMP280;54626;45.436;10.942;2023-05-29T11:08:46;100547.03;;;29.84
67829;BMP280;54626;45.436;10.942;2023-05-29T11:11:14;100541.09;;;30.44
67829;BMP280;54626;45.436;10.942;2023-05-29T11:13:51;100536.00;;;30.39
67829;BMP280;54626;45.436;10.942;2023-05-29T11:19:05;100531.94;;;30.52
67829;BMP280;54626;45.436;10.942;2023-05-29T11:21:34;100531.47;;;30.65
67829;BMP280;54626;45.436;10.942;2023-05-29T11:24:05;100537.78;;;31.01
67829;BMP280;54626;45.436;10.942;2023-05-29T11:26:37;100526.06;;;30.83
67829;BMP280;54626;45.436;10.942;2023-05-29T11:29:04;100516.44;;;31.07
67829;BMP280;54626;45.436;10.942;2023-05-29T11:31:33;100522.41;;;31.23
67829;BMP280;54626;45.436;10.942;2023-05-29T11:34:02;100525.84;;;30.69
67829;BMP280;54626;45.436;10.942;2023-05-29T11:36:34;100516.13;;;30.08
67829;BMP280;54626;45.436;10.942;2023-05-29T11:39:01;100518.25;;;29.72
67829;BMP280;54626;45.436;10.942;2023-05-29T11:41:28;100521.88;;;30.10
67829;BMP280;54626;45.436;10.942;2023-05-29T11:44:02;100523.00;;;29.95
67829;BMP280;54626;45.436;10.942;2023-05-29T11:46:29;100532.59;;;29.14
67829;BMP280;54626;45.436;10.942;2023-05-29T11:48:59;100529.19;;;29.19
67829;BMP280;54626;45.436;10.942;2023-05-29T11:51:27;100522.69;;;29.17
67829;BMP280;54626;45.436;10.942;2023-05-29T11:53:54;100526.72;;;29.35
67829;BMP280;54626;45.436;10.942;2023-05-29T11:56:28;100525.25;;;29.34
67829;BMP280;54626;45.436;10.942;2023-05-29T11:58:58;100524.28;;;29.55
67829;BMP280;54626;45.436;10.942;2023-05-29T12:01:27;100521.44;;;29.88
67829;BMP280;54626;45.436;10.942;2023-05-29T12:03:54;100513.44;;;30.98
67829;BMP280;54626;45.436;10.942;2023-05-29T12:06:36;100526.31;;;30.56
67829;BMP280;54626;45.436;10.942;2023-05-29T12:09:04;100524.94;;;31.02
67829;BMP280;54626;45.436;10.942;2023-05-29T12:11:32;100518.78;;;31.21
67829;BMP280;54626;45.436;10.942;2023-05-29T12:14:01;100524.66;;;30.84
67829;BMP280;54626;45.436;10.942;2023-05-29T12:16:32;100515.91;;;30.33
67829;BMP280;54626;45.436;10.942;2023-05-29T12:19:12;100518.38;;;30.50
67829;BMP280;54626;45.436;10.942;2023-05-29T12:21:41;100520.16;;;30.32
67829;BMP280;54626;45.436;10.942;2023-05-29T12:24:09;100525.75;;;30.63
67829;BMP280;54626;45.436;10.942;2023-05-29T12:26:41;100518.56;;;30.62
67829;BMP280;54626;45.436;10.942;2023-05-29T12:29:08;100517.88;;;30.63
67829;BMP280;54626;45.436;10.942;2023-05-29T12:31:34;100507.13;;;30.60
67829;BMP280;54626;45.436;10.942;2023-05-29T12:34:06;100514.31;;;30.24
67829;BMP280;54626;45.436;10.942;2023-05-29T12:36:33;100508.41;;;30.14
67829;BMP280;54626;45.436;10.942;2023-05-29T12:39:05;100506.69;;;30.77
67829;BMP280;54626;45.436;10.942;2023-05-29T12:41:36;100503.88;;;31.28
67829;BMP280;54626;45.436;10.942;2023-05-29T12:44:06;100506.28;;;30.97
67829;BMP280;54626;45.436;10.942;2023-05-29T12:47:08;100497.88;;;31.06
67829;BMP280;54626;45.436;10.942;2023-05-29T12:49:40;100503.88;;;30.40
67829;BMP280;54626;45.436;10.942;2023-05-29T12:52:28;100503.75;;;30.34
67829;BMP280;54626;45.436;10.942;2023-05-29T12:54:54;100499.50;;;30.35
67829;BMP280;54626;45.436;10.942;2023-05-29T13:01:01;100485.31;;;31.29
67829;BMP280;54626;45.436;10.942;2023-05-29T13:05:55;100483.19;;;31.91
67829;BMP280;54626;45.436;10.942;2023-05-29T13:11:37;100476.31;;;30.57
67829;BMP280;54626;45.436;10.942;2023-05-29T13:19:24;100466.91;;;31.44
67829;BMP280;54626;45.436;10.942;2023-05-29T13:21:51;100464.41;;;31.74
67829;BMP280;54626;45.436;10.942;2023-05-29T13:24:18;100466.22;;;32.08
67829;BMP280;54626;45.436;10.942;2023-05-29T13:26:44;100464.84;;;32.13
67829;BMP280;54626;45.436;10.942;2023-05-29T13:29:33;100460.22;;;32.63
67829;BMP280;54626;45.436;10.942;2023-05-29T13:36:06;100455.47;;;33.07
67829;BMP280;54626;45.436;10.942;2023-05-29T13:38:33;100445.81;;;32.53
67829;BMP280;54626;45.436;10.942;2023-05-29T13:40:59;100446.09;;;31.38
67829;BMP280;54626;45.436;10.942;2023-05-29T13:43:32;100443.94;;;31.36
67829;BMP280;54626;45.436;10.942;2023-05-29T13:46:10;100436.72;;;31.31
67829;BMP280;54626;45.436;10.942;2023-05-29T14:02:39;100424.63;;;32.03
67829;BMP280;54626;45.436;10.942;2023-05-29T14:05:06;100422.13;;;32.47
67829;BMP280;54626;45.436;10.942;2023-05-29T14:07:32;100416.56;;;32.75
67829;BMP280;54626;45.436;10.942;2023-05-29T14:09:59;100414.47;;;32.83
67829;BMP280;54626;45.436;10.942;2023-05-29T14:12:26;100417.84;;;32.52
67829;BMP280;54626;45.436;10.942;2023-05-29T14:14:52;100413.47;;;32.39
67829;BMP280;54626;45.436;10.942;2023-05-29T14:17:19;100414.34;;;32.65
67829;BMP280;54626;45.436;10.942;2023-05-29T14:19:46;100418.63;;;32.62
67829;BMP280;54626;45.436;10.942;2023-05-29T14:22:13;100413.78;;;31.90
67829;BMP280;54626;45.436;10.942;2023-05-29T14:24:40;100414.72;;;31.46
67829;BMP280;54626;45.436;10.942;2023-05-29T14:27:25;100411.44;;;31.73
67829;BMP280;54626;45.436;10.942;2023-05-29T14:29:52;100413.22;;;32.05
67829;BMP280;54626;45.436;10.942;2023-05-29T14:35:29;100418.41;;;32.29
67829;BMP280;54626;45.436;10.942;2023-05-29T14:37:56;100419.81;;;32.24
67829;BMP280;54626;45.436;10.942;2023-05-29T14:42:57;100430.84;;;32.63
67829;BMP280;54626;45.436;10.942;2023-05-29T14:45:24;100427.97;;;32.61
67829;BMP280;54626;45.436;10.942;2023-05-29T14:47:50;100427.69;;;32.21
67829;BMP280;54626;45.436;10.942;2023-05-29T14:50:47;100434.13;;;31.51
67829;BMP280;54626;45.436;10.942;2023-05-29T14:53:14;100422.81;;;30.59
67829;BMP280;54626;45.436;10.942;2023-05-29T14:55:40;100432.81;;;29.80
67829;BMP280;54626;45.436;10.942;2023-05-29T14:58:07;100422.84;;;29.81
67829;BMP280;54626;45.436;10.942;2023-05-29T15:00:34;100436.38;;;30.17
67829;BMP280;54626;45.436;10.942;2023-05-29T15:03:06;100427.72;;;30.53
67829;BMP280;54626;45.436;10.942;2023-05-29T15:05:33;100425.69;;;31.08
67829;BMP280;54626;45.436;10.942;2023-05-29T15:07:59;100426.22;;;31.51
67829;BMP280;54626;45.436;10.942;2023-05-29T15:10:26;100417.09;;;31.65
67829;BMP280;54626;45.436;10.942;2023-05-29T15:12:53;100417.88;;;31.71
67829;BMP280;54626;45.436;10.942;2023-05-29T15:15:29;100414.00;;;31.45
67829;BMP280;54626;45.436;10.942;2023-05-29T15:18:13;100421.19;;;31.46
67829;BMP280;54626;45.436;10.942;2023-05-29T15:20:39;100423.75;;;31.85
67829;BMP280;54626;45.436;10.942;2023-05-29T15:23:07;100417.06;;;31.61
67829;BMP280;54626;45.436;10.942;2023-05-29T15:25:35;100420.78;;;31.14
67829;BMP280;54626;45.436;10.942;2023-05-29T15:28:38;100419.28;;;31.70
67829;BMP280;54626;45.436;10.942;2023-05-29T15:31:05;100427.75;;;31.58
67829;BMP280;54626;45.436;10.942;2023-05-29T15:40:17;100422.16;;;31.72
67829;BMP280;54626;45.436;10.942;2023-05-29T15:42:44;100415.94;;;31.92
67829;BMP280;54626;45.436;10.942;2023-05-29T15:45:12;100419.50;;;31.92
67829;BMP280;54626;45.436;10.942;2023-05-29T15:47:40;100417.97;;;31.83
67829;BMP280;54626;45.436;10.942;2023-05-29T15:50:25;100420.22;;;31.91
67829;BMP280;54626;45.436;10.942;2023-05-29T16:00:44;100427.78;;;32.39
67829;BMP280;54626;45.436;10.942;2023-05-29T16:03:16;100429.31;;;32.52
67829;BMP280;54626;45.436;10.942;2023-05-29T16:05:43;100429.09;;;32.20
67829;BMP280;54626;45.436;10.942;2023-05-29T16:08:09;100422.53;;;32.10
67829;BMP280;54626;45.436;10.942;2023-05-29T16:10:36;100427.09;;;31.62
67829;BMP280;54626;45.436;10.942;2023-05-29T16:13:24;100425.72;;;31.67
67829;BMP280;54626;45.436;10.942;2023-05-29T16:22:43;100418.69;;;31.19
67829;BMP280;54626;45.436;10.942;2023-05-29T16:25:10;100423.00;;;30.71
67829;BMP280;54626;45.436;10.942;2023-05-29T16:30:30;100409.34;;;29.81
67829;BMP280;54626;45.436;10.942;2023-05-29T16:36:39;100411.88;;;29.66
67829;BMP280;54626;45.436;10.942;2023-05-29T16:39:09;100418.00;;;29.52
67829;BMP280;54626;45.436;10.942;2023-05-29T16:41:38;100409.78;;;29.68
67829;BMP280;54626;45.436;10.942;2023-05-29T16:44:05;100408.44;;;29.73
67829;BMP280;54626;45.436;10.942;2023-05-29T16:46:31;100414.94;;;29.77
67829;BMP280;54626;45.436;10.942;2023-05-29T16:56:59;100406.38;;;29.40
67829;BMP280;54626;45.436;10.942;2023-05-29T16:59:27;100404.66;;;29.27
67829;BMP280;54626;45.436;10.942;2023-05-29T17:01:57;100404.66;;;29.27